Time;durP1;ratioP1;P1;durP2;ratioP2;P2;SDS_P1;SDS_P2;PMS_P1;PMS_P2;Temp;Humidity;BMP_temperature;BMP_pressure;BME280_temperature;BME280_humidity;BME280_pressure;Samples;Min_cycle;Max_cycle;Signal;HPM_P1;HPM_P2
2022/08/21 00:00:06;;;;;;;19.90;17.90;;;;;;;;;;5080352;28;20459;-74
2022/08/21 00:02:43;;;;;;;18.93;16.97;;;;;;;;;;5078803;28;20477;-75
2022/08/21 00:05:10;;;;;;;23.10;20.70;;;;;;;;;;5094319;28;20465;-75
2022/08/21 00:07:36;;;;;;;20.70;18.53;;;;;;;;;;5073505;28;20506;-75
2022/08/21 00:10:04;;;;;;;25.70;18.30;;;;;;;;;;5072790;28;20506;-75
2022/08/21 00:12:31;;;;;;;18.97;16.97;;;;;;;;;;5086043;28;20485;-75
2022/08/21 00:14:57;;;;;;;24.80;19.83;;;;;;;;;;5072563;28;20424;-75
2022/08/21 00:17:25;;;;;;;22.97;19.70;;;;;;;;;;5079153;28;20466;-75
2022/08/21 00:19:52;;;;;;;20.83;18.73;;;;;;;;;;5081021;28;20440;-75
2022/08/21 00:22:19;;;;;;;21.83;19.43;;;;;;;;;;5073462;28;20984;-76
2022/08/21 00:24:45;;;;;;;22.57;20.17;;;;;;;;;;5073850;28;20441;-77
2022/08/21 00:27:12;;;;;;;22.70;19.87;;;;;;;;;;5074955;28;20431;-77
2022/08/21 00:29:41;;;;;;;23.37;20.93;;;;;;;;;;5074121;28;20502;-77
2022/08/21 00:32:08;;;;;;;25.20;21.50;;;;;;;;;;5080634;28;20431;-77
2022/08/21 00:34:34;;;;;;;23.37;20.80;;;;;;;;;;5092580;28;20420;-77
2022/08/21 00:37:01;;;;;;;24.27;21.73;;;;;;;;;;5075833;28;20451;-77
2022/08/21 00:39:28;;;;;;;24.23;21.37;;;;;;;;;;5093902;28;20448;-77
2022/08/21 00:41:54;;;;;;;24.40;21.87;;;;;;;;;;5084629;28;20499;-77
2022/08/21 00:44:21;;;;;;;25.67;21.90;;;;;;;;;;5072519;28;20472;-77
2022/08/21 00:46:48;;;;;;;24.77;22.17;;;;;;;;;;5072492;28;20515;-77
2022/08/21 00:49:14;;;;;;;23.77;21.20;;;;;;;;;;5071597;28;20440;-77
2022/08/21 00:51:43;;;;;;;25.37;21.00;;;;;;;;;;5089554;28;20444;-77
2022/08/21 00:54:10;;;;;;;26.60;23.80;;;;;;;;;;5075957;28;20425;-77
2022/08/21 00:56:45;;;;;;;26.50;22.57;;;;;;;;;;5072866;28;20439;-76
2022/08/21 00:59:14;;;;;;;30.50;23.13;;;;;;;;;;5084992;28;20515;-77
2022/08/21 01:01:41;;;;;;;31.63;24.43;;;;;;;;;;5072726;28;20466;-77
2022/08/21 01:04:07;;;;;;;31.00;26.43;;;;;;;;;;5076327;28;20478;-77
2022/08/21 01:06:34;;;;;;;29.60;23.17;;;;;;;;;;5055945;28;20440;-76
2022/08/21 01:09:02;;;;;;;25.90;20.90;;;;;;;;;;5074489;28;20464;-77
2022/08/21 01:11:29;;;;;;;29.77;24.60;;;;;;;;;;5072118;28;20424;-76
2022/08/21 01:13:56;;;;;;;23.70;21.20;;;;;;;;;;5054787;28;20719;-76
2022/08/21 01:16:22;;;;;;;22.63;19.97;;;;;;;;;;5074313;28;20482;-79
2022/08/21 01:18:49;;;;;;;25.23;21.77;;;;;;;;;;5069858;28;20481;-79
2022/08/21 01:21:19;;;;;;;23.33;20.87;;;;;;;;;;5082392;28;20468;-79
2022/08/21 01:23:47;;;;;;;26.23;23.17;;;;;;;;;;5074563;28;20485;-79
2022/08/21 01:26:15;;;;;;;22.87;19.60;;;;;;;;;;5086263;28;20435;-79
2022/08/21 01:28:45;;;;;;;25.97;20.60;;;;;;;;;;5081083;28;20447;-79
2022/08/21 01:31:14;;;;;;;33.10;22.47;;;;;;;;;;5082134;28;20437;-79
2022/08/21 01:33:42;;;;;;;28.87;23.50;;;;;;;;;;5054996;28;20436;-79
2022/08/21 01:36:09;;;;;;;30.07;23.23;;;;;;;;;;5067738;28;20433;-79
2022/08/21 01:38:35;;;;;;;22.83;19.73;;;;;;;;;;5077776;28;20460;-79
2022/08/21 01:41:02;;;;;;;31.67;21.07;;;;;;;;;;5057183;28;20479;-79
2022/08/21 01:43:28;;;;;;;24.00;21.50;;;;;;;;;;5081273;28;20436;-79
2022/08/21 01:46:05;;;;;;;23.80;19.77;;;;;;;;;;5096101;28;20934;-79
2022/08/21 01:48:31;;;;;;;22.30;19.17;;;;;;;;;;5069928;28;20509;-79
2022/08/21 01:50:58;;;;;;;27.07;22.60;;;;;;;;;;5062187;28;20445;-78
2022/08/21 01:53:25;;;;;;;28.90;22.50;;;;;;;;;;5097536;28;20847;-78
2022/08/21 01:55:59;;;;;;;28.30;23.40;;;;;;;;;;5085622;28;20507;-78
2022/08/21 01:58:25;;;;;;;30.17;23.50;;;;;;;;;;5069601;28;20428;-77
2022/08/21 02:00:52;;;;;;;31.43;24.53;;;;;;;;;;5073859;28;20999;-78
2022/08/21 02:03:19;;;;;;;29.00;23.87;;;;;;;;;;5085651;28;20420;-77
2022/08/21 02:06:02;;;;;;;30.07;24.77;;;;;;;;;;5096254;28;20938;-77
2022/08/21 02:08:29;;;;;;;35.90;27.90;;;;;;;;;;5081557;28;20448;-78
2022/08/21 02:10:56;;;;;;;31.97;27.00;;;;;;;;;;5079730;28;20458;-77
2022/08/21 02:13:22;;;;;;;35.80;27.10;;;;;;;;;;5066229;28;20441;-78
2022/08/21 02:15:49;;;;;;;39.37;26.90;;;;;;;;;;5078168;28;20432;-78
2022/08/21 02:18:16;;;;;;;34.83;26.17;;;;;;;;;;5093965;28;20447;-78
2022/08/21 02:20:44;;;;;;;36.00;27.10;;;;;;;;;;5082890;28;21096;-77
2022/08/21 02:23:11;;;;;;;30.90;25.60;;;;;;;;;;5080922;28;20428;-78
2022/08/21 02:25:38;;;;;;;27.70;22.50;;;;;;;;;;5068119;28;20432;-77
2022/08/21 02:28:07;;;;;;;29.70;25.80;;;;;;;;;;5085256;28;20419;-78
2022/08/21 02:30:37;;;;;;;27.90;23.37;;;;;;;;;;5075852;28;20433;-78
2022/08/21 02:33:05;;;;;;;29.53;26.03;;;;;;;;;;5075500;28;20478;-78
2022/08/21 02:35:31;;;;;;;32.27;24.63;;;;;;;;;;5074032;28;20439;-78
2022/08/21 02:38:00;;;;;;;35.17;25.70;;;;;;;;;;5074194;28;20471;-78
2022/08/21 02:40:30;;;;;;;32.30;24.30;;;;;;;;;;5074606;28;20459;-78
2022/08/21 02:42:57;;;;;;;34.30;26.90;;;;;;;;;;5056983;28;20432;-79
2022/08/21 02:45:24;;;;;;;31.70;26.30;;;;;;;;;;5084850;28;20502;-78
2022/08/21 02:47:53;;;;;;;32.70;26.77;;;;;;;;;;5078437;28;20433;-78
2022/08/21 02:50:22;;;;;;;32.03;25.30;;;;;;;;;;5073989;28;20509;-78
2022/08/21 02:52:52;;;;;;;34.17;25.87;;;;;;;;;;5073378;28;20852;-78
2022/08/21 02:55:22;;;;;;;37.23;25.20;;;;;;;;;;5057414;28;20506;-78
2022/08/21 02:57:48;;;;;;;34.87;26.03;;;;;;;;;;5092449;28;20786;-78
2022/08/21 03:00:15;;;;;;;31.87;26.17;;;;;;;;;;5090231;28;20460;-78
2022/08/21 03:02:42;;;;;;;33.77;27.17;;;;;;;;;;5086423;28;20457;-77
2022/08/21 03:05:09;;;;;;;34.10;27.67;;;;;;;;;;5072982;28;20474;-79
2022/08/21 03:07:37;;;;;;;36.20;28.07;;;;;;;;;;5066530;28;20432;-78
2022/08/21 03:10:04;;;;;;;34.13;27.00;;;;;;;;;;5077489;28;20981;-78
2022/08/21 03:12:30;;;;;;;35.47;28.17;;;;;;;;;;5077237;28;20428;-78
2022/08/21 03:14:57;;;;;;;37.40;29.07;;;;;;;;;;5076625;28;20441;-78
2022/08/21 03:17:24;;;;;;;38.23;27.70;;;;;;;;;;5076427;28;20952;-78
2022/08/21 03:19:56;;;;;;;34.00;29.40;;;;;;;;;;5079591;28;20475;-78
2022/08/21 03:22:22;;;;;;;33.07;27.70;;;;;;;;;;5077162;28;20460;-78
2022/08/21 03:24:49;;;;;;;32.13;27.17;;;;;;;;;;5060733;28;20497;-78
2022/08/21 03:27:17;;;;;;;37.07;29.87;;;;;;;;;;5081569;28;20428;-79
2022/08/21 03:29:45;;;;;;;33.60;27.87;;;;;;;;;;5097151;28;20504;-78
2022/08/21 03:32:12;;;;;;;30.93;26.70;;;;;;;;;;5089864;28;20864;-78
2022/08/21 03:34:38;;;;;;;35.20;28.27;;;;;;;;;;5080072;28;20445;-78
2022/08/21 03:37:07;;;;;;;35.07;28.83;;;;;;;;;;5052110;28;20472;-78
2022/08/21 03:39:34;;;;;;;32.60;29.10;;;;;;;;;;5060645;28;20488;-78
2022/08/21 03:42:00;;;;;;;34.87;28.20;;;;;;;;;;5088366;28;20466;-78
2022/08/21 03:44:28;;;;;;;35.60;30.67;;;;;;;;;;5063395;28;20468;-78
2022/08/21 03:46:55;;;;;;;34.60;28.07;;;;;;;;;;5078088;28;20448;-78
2022/08/21 03:49:24;;;;;;;31.87;27.60;;;;;;;;;;5065648;28;21070;-78
2022/08/21 03:51:50;;;;;;;34.47;28.70;;;;;;;;;;5096367;28;20436;-78
2022/08/21 03:54:25;;;;;;;37.03;30.33;;;;;;;;;;5096837;28;20430;-78
2022/08/21 03:56:54;;;;;;;34.00;27.77;;;;;;;;;;5096812;28;20427;-78
2022/08/21 03:59:20;;;;;;;34.10;28.40;;;;;;;;;;5077379;28;20453;-78
2022/08/21 04:01:51;;;;;;;39.57;29.53;;;;;;;;;;5071533;28;20491;-77
2022/08/21 04:04:17;;;;;;;43.00;34.40;;;;;;;;;;5081593;28;20442;-78
2022/08/21 04:06:44;;;;;;;37.73;30.30;;;;;;;;;;5096658;28;20936;-78
2022/08/21 04:09:11;;;;;;;37.23;28.53;;;;;;;;;;5072527;28;20490;-78
2022/08/21 04:11:37;;;;;;;34.33;29.43;;;;;;;;;;5085830;28;20445;-78
2022/08/21 04:14:04;;;;;;;41.47;31.77;;;;;;;;;;5077104;28;20801;-78
2022/08/21 04:16:30;;;;;;;32.40;28.57;;;;;;;;;;5075763;28;20436;-78
2022/08/21 04:18:57;;;;;;;36.17;30.03;;;;;;;;;;5075544;28;20472;-78
2022/08/21 04:21:23;;;;;;;37.43;30.53;;;;;;;;;;5075975;28;20505;-78
2022/08/21 04:23:50;;;;;;;37.80;31.47;;;;;;;;;;5076022;28;20429;-78
2022/08/21 04:26:18;;;;;;;36.50;30.83;;;;;;;;;;5088513;28;20439;-78
2022/08/21 04:28:44;;;;;;;39.43;29.27;;;;;;;;;;5077242;28;20491;-78
2022/08/21 04:31:11;;;;;;;35.67;31.10;;;;;;;;;;5075677;28;20421;-77
2022/08/21 04:33:37;;;;;;;37.77;30.73;;;;;;;;;;5062136;28;20467;-78
2022/08/21 04:36:04;;;;;;;37.10;29.93;;;;;;;;;;5076203;28;20441;-79
2022/08/21 04:38:31;;;;;;;38.57;31.37;;;;;;;;;;5075074;28;20472;-78
2022/08/21 04:41:04;;;;;;;36.33;30.00;;;;;;;;;;5074836;28;20428;-78
2022/08/21 04:43:31;;;;;;;34.50;28.40;;;;;;;;;;5068517;28;20469;-78
2022/08/21 04:45:57;;;;;;;33.30;28.70;;;;;;;;;;5068109;28;20442;-78
2022/08/21 04:48:24;;;;;;;36.63;31.47;;;;;;;;;;5095137;28;20420;-78
2022/08/21 04:50:56;;;;;;;34.40;30.67;;;;;;;;;;5078464;28;20447;-78
2022/08/21 04:53:27;;;;;;;31.13;27.83;;;;;;;;;;5066609;28;21060;-78
2022/08/21 04:55:55;;;;;;;37.73;29.00;;;;;;;;;;5087537;28;20431;-78
2022/08/21 04:58:22;;;;;;;31.20;27.80;;;;;;;;;;5077335;28;20472;-78
2022/08/21 05:00:51;;;;;;;36.07;30.27;;;;;;;;;;5072779;28;20450;-77
2022/08/21 05:03:18;;;;;;;40.23;33.40;;;;;;;;;;5071315;28;20468;-78
2022/08/21 05:05:44;;;;;;;39.87;32.80;;;;;;;;;;5095765;28;20482;-78
2022/08/21 05:08:17;;;;;;;41.50;32.57;;;;;;;;;;5087501;28;20432;-78
2022/08/21 05:10:44;;;;;;;39.00;32.93;;;;;;;;;;5078175;28;20436;-78
2022/08/21 05:13:12;;;;;;;36.97;32.67;;;;;;;;;;5078881;28;20489;-78
2022/08/21 05:15:39;;;;;;;39.77;32.77;;;;;;;;;;5086806;28;20462;-78
2022/08/21 05:18:06;;;;;;;33.73;30.00;;;;;;;;;;5068648;28;20472;-78
2022/08/21 05:20:36;;;;;;;36.50;30.80;;;;;;;;;;5052100;28;20430;-78
2022/08/21 05:23:10;;;;;;;34.10;30.37;;;;;;;;;;5064706;28;20491;-78
2022/08/21 05:25:37;;;;;;;34.27;29.73;;;;;;;;;;5064575;28;20495;-78
2022/08/21 05:28:04;;;;;;;34.10;30.37;;;;;;;;;;5080364;28;20438;-78
2022/08/21 05:30:32;;;;;;;37.03;30.63;;;;;;;;;;5084856;28;20466;-78
2022/08/21 05:32:59;;;;;;;36.70;29.37;;;;;;;;;;5073639;28;20424;-78
2022/08/21 05:35:27;;;;;;;38.70;31.97;;;;;;;;;;5091181;28;20434;-78
2022/08/21 05:37:53;;;;;;;36.20;29.30;;;;;;;;;;5079127;28;20471;-78
2022/08/21 05:40:20;;;;;;;39.07;29.47;;;;;;;;;;5083901;28;20855;-78
2022/08/21 05:42:53;;;;;;;33.03;28.33;;;;;;;;;;5063617;28;20464;-78
2022/08/21 05:45:25;;;;;;;32.00;28.07;;;;;;;;;;5085268;28;20412;-78
2022/08/21 05:48:16;;;;;;;33.30;28.93;;;;;;;;;;5092837;28;20459;-78
2022/08/21 05:50:43;;;;;;;36.13;29.70;;;;;;;;;;5064520;28;20478;-78
2022/08/21 05:53:10;;;;;;;34.23;28.73;;;;;;;;;;5075254;28;20436;-78
2022/08/21 05:55:37;;;;;;;33.67;29.57;;;;;;;;;;5087465;28;20457;-78
2022/08/21 05:58:11;;;;;;;33.30;28.17;;;;;;;;;;5101217;28;20493;-78
2022/08/21 06:00:38;;;;;;;31.33;27.87;;;;;;;;;;5084508;28;20558;-78
2022/08/21 06:03:09;;;;;;;36.53;30.70;;;;;;;;;;5085353;28;20456;-79
2022/08/21 06:05:36;;;;;;;39.57;32.70;;;;;;;;;;5073760;28;20486;-79
2022/08/21 06:08:03;;;;;;;35.83;31.93;;;;;;;;;;5077421;28;20421;-78
2022/08/21 06:10:30;;;;;;;38.67;31.67;;;;;;;;;;5075449;28;20466;-78
2022/08/21 06:12:57;;;;;;;39.57;31.47;;;;;;;;;;5056805;28;20429;-78
2022/08/21 06:15:24;;;;;;;33.67;29.90;;;;;;;;;;5073540;28;20444;-78
2022/08/21 06:17:51;;;;;;;33.43;28.07;;;;;;;;;;5073327;28;20464;-78
2022/08/21 06:20:18;;;;;;;31.77;27.47;;;;;;;;;;5073402;28;20495;-78
2022/08/21 06:22:45;;;;;;;31.37;27.53;;;;;;;;;;5074007;28;20461;-78
2022/08/21 06:25:11;;;;;;;31.63;28.07;;;;;;;;;;5074396;28;20482;-78
2022/08/21 06:27:38;;;;;;;33.90;27.70;;;;;;;;;;5058176;28;20429;-78
2022/08/21 06:30:05;;;;;;;29.43;25.57;;;;;;;;;;5074545;28;20444;-78
2022/08/21 06:32:32;;;;;;;34.97;28.20;;;;;;;;;;5064393;28;20460;-79
2022/08/21 06:34:58;;;;;;;29.57;26.33;;;;;;;;;;5054470;28;20496;-79
2022/08/21 06:37:25;;;;;;;30.80;27.50;;;;;;;;;;5054520;28;20602;-79
2022/08/21 06:39:51;;;;;;;29.70;26.33;;;;;;;;;;5060717;28;20460;-78
2022/08/21 06:42:18;;;;;;;32.60;28.70;;;;;;;;;;5065662;28;21087;-80
2022/08/21 06:44:45;;;;;;;32.87;28.60;;;;;;;;;;5075518;28;21230;-79
2022/08/21 06:47:12;;;;;;;31.60;28.20;;;;;;;;;;5068241;28;20423;-79
2022/08/21 06:49:38;;;;;;;31.57;28.23;;;;;;;;;;5094750;28;20520;-79
2022/08/21 06:52:08;;;;;;;30.73;27.37;;;;;;;;;;5083741;28;20456;-79
2022/08/21 06:54:35;;;;;;;30.60;27.27;;;;;;;;;;5075601;28;20478;-79
2022/08/21 06:57:02;;;;;;;27.80;24.57;;;;;;;;;;5062913;28;20436;-79
2022/08/21 06:59:28;;;;;;;27.20;24.30;;;;;;;;;;5073744;28;20963;-79
2022/08/21 07:01:55;;;;;;;31.80;28.50;;;;;;;;;;5075745;28;20862;-78
2022/08/21 07:04:22;;;;;;;33.30;27.10;;;;;;;;;;5076196;28;20435;-79
2022/08/21 07:06:48;;;;;;;28.40;25.30;;;;;;;;;;5060828;28;20494;-79
2022/08/21 07:09:15;;;;;;;29.17;26.00;;;;;;;;;;5076913;28;20505;-79
2022/08/21 07:11:49;;;;;;;31.17;23.93;;;;;;;;;;5075422;28;20432;-79
2022/08/21 07:14:15;;;;;;;28.87;25.87;;;;;;;;;;5082399;28;20432;-78
2022/08/21 07:16:46;;;;;;;28.83;25.70;;;;;;;;;;5096855;28;20477;-79
2022/08/21 07:19:13;;;;;;;29.40;26.40;;;;;;;;;;5075607;28;20884;-79
2022/08/21 07:21:39;;;;;;;28.13;25.23;;;;;;;;;;5075116;28;20440;-79
2022/08/21 07:24:06;;;;;;;30.53;27.30;;;;;;;;;;5074927;28;20464;-80
2022/08/21 07:26:32;;;;;;;28.20;25.20;;;;;;;;;;5074392;28;20420;-80
2022/08/21 07:28:59;;;;;;;30.67;25.53;;;;;;;;;;5074550;28;20460;-80
2022/08/21 07:31:26;;;;;;;27.00;24.27;;;;;;;;;;5074076;28;20487;-80
2022/08/21 07:33:53;;;;;;;27.70;24.53;;;;;;;;;;5076568;28;20438;-80
2022/08/21 07:36:20;;;;;;;28.83;25.97;;;;;;;;;;5073876;28;20786;-80
2022/08/21 07:38:47;;;;;;;30.60;27.40;;;;;;;;;;5074412;28;20460;-80
2022/08/21 07:41:20;;;;;;;28.47;25.47;;;;;;;;;;5076093;28;20420;-80
2022/08/21 07:43:46;;;;;;;29.67;26.60;;;;;;;;;;5088192;28;20448;-79
2022/08/21 07:46:13;;;;;;;29.87;26.67;;;;;;;;;;5092733;28;20440;-78
2022/08/21 07:48:40;;;;;;;27.60;24.70;;;;;;;;;;5086375;28;21419;-80
2022/08/21 07:51:08;;;;;;;28.70;25.80;;;;;;;;;;5072301;28;20412;-80
2022/08/21 07:53:36;;;;;;;31.23;23.37;;;;;;;;;;5082633;28;20467;-78
2022/08/21 07:56:03;;;;;;;27.47;24.77;;;;;;;;;;5107434;28;20424;-77
2022/08/21 07:58:30;;;;;;;27.17;24.00;;;;;;;;;;5102173;28;20498;-79
2022/08/21 08:00:59;;;;;;;26.97;24.20;;;;;;;;;;5081825;28;20445;-80
2022/08/21 08:03:26;;;;;;;26.73;23.73;;;;;;;;;;5076656;28;20482;-80
2022/08/21 08:05:55;;;;;;;22.50;20.20;;;;;;;;;;5077538;28;20531;-80
2022/08/21 08:08:21;;;;;;;26.37;23.67;;;;;;;;;;5079283;28;20416;-80
2022/08/21 08:10:49;;;;;;;24.23;21.80;;;;;;;;;;5068526;28;20431;-80
2022/08/21 08:13:16;;;;;;;26.43;23.73;;;;;;;;;;5079458;28;21001;-80
2022/08/21 08:15:42;;;;;;;24.23;21.80;;;;;;;;;;5076592;28;20986;-80
2022/08/21 08:18:09;;;;;;;24.23;21.50;;;;;;;;;;5076531;28;20448;-80
2022/08/21 08:20:35;;;;;;;21.37;19.20;;;;;;;;;;5077436;28;20490;-79
2022/08/21 08:23:03;;;;;;;24.03;21.63;;;;;;;;;;5090236;28;20455;-80
2022/08/21 08:25:29;;;;;;;23.53;21.23;;;;;;;;;;5077118;28;20799;-80
2022/08/21 08:28:04;;;;;;;24.17;22.07;;;;;;;;;;5076967;28;20468;-80
2022/08/21 08:30:43;;;;;;;30.93;22.83;;;;;;;;;;5084894;28;20786;-80
2022/08/21 08:33:10;;;;;;;23.10;20.90;;;;;;;;;;5085917;28;20473;-80
2022/08/21 08:35:36;;;;;;;24.87;22.47;;;;;;;;;;5100280;28;20469;-80
2022/08/21 08:38:05;;;;;;;22.97;20.67;;;;;;;;;;5107068;28;20450;-80
2022/08/21 08:40:52;;;;;;;22.57;20.40;;;;;;;;;;5090916;28;20486;-80
2022/08/21 08:43:19;;;;;;;22.50;19.90;;;;;;;;;;5089230;28;20471;-80
2022/08/21 08:45:47;;;;;;;20.87;18.77;;;;;;;;;;5106436;28;20498;-79
2022/08/21 08:48:17;;;;;;;20.43;18.33;;;;;;;;;;5082883;28;20435;-80
2022/08/21 08:50:48;;;;;;;21.07;19.00;;;;;;;;;;5102696;28;20430;-80
2022/08/21 08:53:17;;;;;;;20.83;18.83;;;;;;;;;;5099418;28;20497;-79
2022/08/21 08:55:44;;;;;;;19.50;17.70;;;;;;;;;;5100384;28;20427;-80
2022/08/21 08:58:22;;;;;;;22.47;20.27;;;;;;;;;;5100380;28;20427;-79
2022/08/21 09:00:50;;;;;;;20.10;18.30;;;;;;;;;;5080828;28;20454;-80
2022/08/21 09:03:17;;;;;;;18.17;16.37;;;;;;;;;;5076235;28;20562;-80
2022/08/21 09:06:00;;;;;;;20.00;18.10;;;;;;;;;;5075730;28;20428;-80
2022/08/21 09:08:32;;;;;;;18.93;17.23;;;;;;;;;;5080775;28;20432;-80
2022/08/21 09:11:09;;;;;;;19.80;17.87;;;;;;;;;;5065289;28;20448;-79
2022/08/21 09:13:42;;;;;;;20.10;17.37;;;;;;;;;;5081369;28;20487;-80
2022/08/21 09:16:21;;;;;;;20.13;18.27;;;;;;;;;;5077166;28;20436;-80
2022/08/21 09:18:51;;;;;;;20.10;18.10;;;;;;;;;;5094234;28;20467;-80
2022/08/21 09:21:23;;;;;;;17.67;15.97;;;;;;;;;;5076655;28;20486;-80
2022/08/21 09:24:12;;;;;;;18.77;16.97;;;;;;;;;;5078188;28;20461;-80
2022/08/21 09:26:59;;;;;;;20.13;18.17;;;;;;;;;;5094149;28;20585;-79
2022/08/21 09:29:29;;;;;;;19.53;17.63;;;;;;;;;;5043783;28;20488;-79
2022/08/21 09:31:56;;;;;;;18.63;17.00;;;;;;;;;;5049456;28;20448;-80
2022/08/21 09:34:26;;;;;;;21.00;17.63;;;;;;;;;;5082154;28;20486;-80
2022/08/21 09:36:53;;;;;;;17.47;15.87;;;;;;;;;;5053806;28;20537;-79
2022/08/21 09:39:27;;;;;;;16.63;15.00;;;;;;;;;;5069980;28;20511;-80
2022/08/21 09:41:55;;;;;;;19.80;17.80;;;;;;;;;;5069893;28;20415;-80
2022/08/21 09:44:27;;;;;;;17.60;15.90;;;;;;;;;;5093368;28;21065;-79
2022/08/21 09:46:53;;;;;;;17.20;15.40;;;;;;;;;;5076520;28;20459;-79
2022/08/21 09:49:30;;;;;;;18.40;16.60;;;;;;;;;;5078307;28;20457;-80
2022/08/21 09:51:58;;;;;;;16.13;14.27;;;;;;;;;;5075215;28;20994;-80
2022/08/21 09:54:33;;;;;;;15.20;13.70;;;;;;;;;;5077629;28;20514;-80
2022/08/21 09:59:50;;;;;;;16.13;14.60;;;;;;;;;;5081193;28;20437;-80
2022/08/21 10:02:17;;;;;;;17.00;15.40;;;;;;;;;;5101079;28;20436;-78
2022/08/21 10:04:49;;;;;;;15.87;14.37;;;;;;;;;;5086571;28;20468;-79
2022/08/21 10:07:20;;;;;;;14.93;13.40;;;;;;;;;;5095356;28;20453;-78
2022/08/21 10:09:57;;;;;;;15.13;13.73;;;;;;;;;;5076630;28;20453;-79
2022/08/21 10:12:30;;;;;;;15.17;13.63;;;;;;;;;;5038834;28;20453;-79
2022/08/21 10:15:16;;;;;;;14.83;13.37;;;;;;;;;;5055682;28;20437;-79
2022/08/21 10:18:02;;;;;;;14.57;13.13;;;;;;;;;;5071424;28;20502;-78
2022/08/21 10:20:47;;;;;;;12.80;11.70;;;;;;;;;;5077835;28;20470;-79
2022/08/21 10:23:33;;;;;;;14.77;13.33;;;;;;;;;;5098061;28;20469;-79
2022/08/21 10:26:20;;;;;;;14.07;12.70;;;;;;;;;;5080592;28;20438;-79
2022/08/21 10:28:59;;;;;;;14.17;12.70;;;;;;;;;;5074806;28;20478;-79
2022/08/21 10:31:26;;;;;;;10.93;9.83;;;;;;;;;;5061121;28;20445;-77
2022/08/21 10:33:58;;;;;;;12.20;11.20;;;;;;;;;;5082543;28;20502;-77
2022/08/21 10:36:35;;;;;;;12.30;11.13;;;;;;;;;;5072727;28;20921;-76
2022/08/21 10:39:16;;;;;;;12.23;11.13;;;;;;;;;;5088889;28;20454;-78
2022/08/21 10:42:12;;;;;;;11.50;10.50;;;;;;;;;;5098552;28;20424;-78
2022/08/21 10:44:44;;;;;;;13.40;12.23;;;;;;;;;;5093861;28;20489;-77
2022/08/21 10:47:10;;;;;;;13.40;12.30;;;;;;;;;;5092448;28;20420;-78
2022/08/21 10:49:40;;;;;;;11.73;10.67;;;;;;;;;;5092249;28;20821;-77
2022/08/21 10:52:25;;;;;;;11.00;10.10;;;;;;;;;;5075150;28;20962;-77
2022/08/21 10:54:55;;;;;;;11.37;10.33;;;;;;;;;;5083776;28;20433;-77
2022/08/21 10:57:35;;;;;;;11.87;10.77;;;;;;;;;;5074172;28;20781;-77
2022/08/21 11:00:10;;;;;;;10.03;9.13;;;;;;;;;;5073881;28;20501;-77
2022/08/21 11:02:40;;;;;;;11.07;10.17;;;;;;;;;;5074819;28;20492;-77
2022/08/21 11:05:24;;;;;;;8.90;8.10;;;;;;;;;;5073450;28;20416;-78
2022/08/21 11:07:58;;;;;;;10.50;9.70;;;;;;;;;;5076652;28;20471;-77
2022/08/21 11:10:33;;;;;;;9.10;8.40;;;;;;;;;;5073434;28;20432;-77
2022/08/21 11:13:02;;;;;;;10.00;9.20;;;;;;;;;;5088801;28;20471;-78
2022/08/21 11:15:41;;;;;;;9.53;8.63;;;;;;;;;;5089173;28;20421;-78
2022/08/21 11:18:22;;;;;;;9.10;8.37;;;;;;;;;;5089387;28;20472;-78
2022/08/21 11:20:55;;;;;;;8.73;7.93;;;;;;;;;;5077033;28;20439;-78
2022/08/21 11:23:27;;;;;;;9.10;8.30;;;;;;;;;;5073793;28;20459;-78
2022/08/21 11:26:01;;;;;;;8.97;8.27;;;;;;;;;;5078584;28;20428;-78
2022/08/21 11:28:35;;;;;;;8.30;7.57;;;;;;;;;;5094214;28;20451;-79
2022/08/21 11:31:02;;;;;;;8.40;7.60;;;;;;;;;;5091595;28;20435;-79
2022/08/21 11:33:34;;;;;;;9.60;8.70;;;;;;;;;;5096755;28;20457;-79
2022/08/21 11:36:04;;;;;;;7.87;7.27;;;;;;;;;;5107092;28;20454;-78
2022/08/21 11:38:39;;;;;;;7.77;7.17;;;;;;;;;;5109143;28;20512;-78
2022/08/21 11:41:09;;;;;;;8.60;7.87;;;;;;;;;;5091213;28;20431;-78
2022/08/21 11:43:38;;;;;;;7.50;6.90;;;;;;;;;;5105430;28;20470;-77
2022/08/21 11:46:23;;;;;;;6.80;6.20;;;;;;;;;;5101684;28;20431;-79
2022/08/21 11:49:02;;;;;;;7.70;6.93;;;;;;;;;;5081490;28;20451;-79
2022/08/21 11:51:33;;;;;;;7.17;6.57;;;;;;;;;;5100442;28;20519;-79
2022/08/21 11:54:07;;;;;;;6.40;5.90;;;;;;;;;;5080478;28;20431;-78
2022/08/21 11:56:38;;;;;;;7.20;6.70;;;;;;;;;;5098914;28;20458;-79
2022/08/21 11:59:08;;;;;;;7.60;7.00;;;;;;;;;;5095917;28;20509;-79
2022/08/21 12:01:37;;;;;;;6.40;5.90;;;;;;;;;;5077744;28;20831;-78
2022/08/21 12:04:08;;;;;;;6.97;6.33;;;;;;;;;;5092962;28;20475;-79
2022/08/21 12:06:36;;;;;;;7.53;6.93;;;;;;;;;;5078116;28;20831;-79
2022/08/21 12:09:05;;;;;;;6.37;5.97;;;;;;;;;;5078493;28;20547;-79
2022/08/21 12:11:32;;;;;;;6.03;5.53;;;;;;;;;;5077169;28;20478;-79
2022/08/21 12:14:00;;;;;;;6.30;5.80;;;;;;;;;;5075844;28;20440;-79
2022/08/21 12:16:40;;;;;;;6.53;6.03;;;;;;;;;;5076687;28;20464;-78
2022/08/21 12:19:07;;;;;;;7.20;6.50;;;;;;;;;;5076069;28;20472;-78
2022/08/21 12:21:46;;;;;;;6.70;6.20;;;;;;;;;;5076010;28;20456;-79
2022/08/21 12:24:12;;;;;;;5.93;5.43;;;;;;;;;;5075544;28;20865;-78
2022/08/21 12:26:52;;;;;;;6.20;5.70;;;;;;;;;;5077561;28;20452;-77
2022/08/21 12:29:25;;;;;;;7.17;5.37;;;;;;;;;;5092023;28;20484;-79
2022/08/21 12:31:53;;;;;;;5.80;5.40;;;;;;;;;;5075176;28;20506;-79
2022/08/21 12:34:22;;;;;;;10.63;5.87;;;;;;;;;;5074700;28;20437;-79
2022/08/21 12:37:10;;;;;;;5.17;4.77;;;;;;;;;;5093087;28;20440;-79
2022/08/21 12:39:38;;;;;;;5.90;5.50;;;;;;;;;;5079146;28;20467;-79
2022/08/21 12:42:13;;;;;;;6.03;5.53;;;;;;;;;;5095092;28;20526;-79
2022/08/21 12:44:42;;;;;;;5.63;5.23;;;;;;;;;;5094364;28;20446;-78
2022/08/21 12:47:15;;;;;;;5.60;5.20;;;;;;;;;;5078152;28;20428;-78
2022/08/21 12:49:54;;;;;;;7.10;4.90;;;;;;;;;;5094802;28;20814;-78
2022/08/21 12:52:27;;;;;;;6.33;5.77;;;;;;;;;;5094936;28;20444;-78
2022/08/21 12:54:54;;;;;;;5.50;5.07;;;;;;;;;;5095909;28;20440;-78
2022/08/21 12:57:28;;;;;;;7.30;5.03;;;;;;;;;;5095122;28;20427;-78
2022/08/21 13:00:00;;;;;;;5.20;4.80;;;;;;;;;;5094172;28;20460;-78
2022/08/21 13:02:31;;;;;;;5.70;5.30;;;;;;;;;;5071465;28;20885;-78
2022/08/21 13:05:01;;;;;;;6.67;6.20;;;;;;;;;;5079829;28;20895;-79
2022/08/21 13:07:29;;;;;;;7.53;6.93;;;;;;;;;;5081053;28;20449;-79
2022/08/21 13:09:58;;;;;;;7.50;6.80;;;;;;;;;;5090993;28;20459;-78
2022/08/21 13:12:26;;;;;;;6.47;5.90;;;;;;;;;;5085733;28;20443;-79
2022/08/21 13:14:59;;;;;;;8.90;6.50;;;;;;;;;;5079311;28;20490;-79
2022/08/21 13:17:30;;;;;;;6.97;6.37;;;;;;;;;;5074886;28;20497;-78
2022/08/21 13:19:58;;;;;;;7.07;6.47;;;;;;;;;;5057798;28;20448;-79
2022/08/21 13:22:26;;;;;;;6.77;6.27;;;;;;;;;;5091644;28;20516;-79
2022/08/21 13:25:00;;;;;;;6.33;5.83;;;;;;;;;;5074695;28;20460;-78
2022/08/21 13:27:33;;;;;;;5.23;4.83;;;;;;;;;;5074325;28;20444;-78
2022/08/21 13:30:09;;;;;;;5.33;4.90;;;;;;;;;;5076322;28;20444;-78
2022/08/21 13:32:38;;;;;;;5.27;4.87;;;;;;;;;;5091665;28;20487;-78
2022/08/21 13:35:11;;;;;;;5.27;4.87;;;;;;;;;;5062700;28;20465;-77
2022/08/21 13:37:39;;;;;;;5.53;5.13;;;;;;;;;;5078422;28;20470;-79
2022/08/21 13:40:06;;;;;;;4.70;4.30;;;;;;;;;;5095394;28;20558;-79
2022/08/21 13:42:33;;;;;;;5.23;4.90;;;;;;;;;;5094997;28;20518;-79
2022/08/21 13:45:00;;;;;;;5.00;4.70;;;;;;;;;;5077663;28;20456;-79
2022/08/21 13:47:26;;;;;;;5.63;5.23;;;;;;;;;;5096469;28;20420;-79
2022/08/21 13:49:54;;;;;;;6.30;5.80;;;;;;;;;;5078247;28;20542;-79
2022/08/21 13:52:26;;;;;;;5.97;5.47;;;;;;;;;;5093577;28;20412;-79
2022/08/21 13:54:54;;;;;;;5.70;5.20;;;;;;;;;;5096470;28;20427;-79
2022/08/21 13:57:26;;;;;;;6.43;5.93;;;;;;;;;;5077078;28;20505;-78
2022/08/21 13:59:52;;;;;;;6.60;6.10;;;;;;;;;;5092960;28;20932;-80
2022/08/21 14:02:22;;;;;;;7.43;6.73;;;;;;;;;;5069626;28;20421;-78
2022/08/21 14:04:57;;;;;;;5.53;5.13;;;;;;;;;;5073558;28;20452;-79
2022/08/21 14:07:35;;;;;;;6.73;6.23;;;;;;;;;;5074427;28;20497;-77
2022/08/21 14:10:04;;;;;;;6.10;5.70;;;;;;;;;;5075144;28;20544;-79
2022/08/21 14:12:37;;;;;;;6.70;5.87;;;;;;;;;;5080045;28;20436;-78
2022/08/21 14:15:05;;;;;;;4.90;4.50;;;;;;;;;;5094546;28;20950;-78
2022/08/21 14:17:33;;;;;;;5.97;5.47;;;;;;;;;;5077603;28;21031;-78
2022/08/21 14:20:00;;;;;;;5.40;5.00;;;;;;;;;;5093361;28;20552;-79
2022/08/21 14:22:35;;;;;;;5.03;4.73;;;;;;;;;;5093415;28;20435;-79
2022/08/21 14:25:27;;;;;;;5.63;4.20;;;;;;;;;;5093458;28;20463;-79
2022/08/21 14:27:56;;;;;;;4.60;4.30;;;;;;;;;;5076230;28;20427;-79
2022/08/21 14:30:33;;;;;;;5.23;4.83;;;;;;;;;;5091796;28;20512;-79
2022/08/21 14:33:01;;;;;;;5.37;4.87;;;;;;;;;;5075618;28;21264;-79
2022/08/21 14:35:27;;;;;;;4.37;4.07;;;;;;;;;;5103640;28;20420;-78
2022/08/21 14:37:55;;;;;;;4.97;4.60;;;;;;;;;;5112337;28;20519;-78
2022/08/21 14:40:23;;;;;;;5.03;4.53;;;;;;;;;;5084872;28;20434;-76